Time;durP1;ratioP1;P1;durP2;ratioP2;P2;SDS_P1;SDS_P2;PMS_P1;PMS_P2;Temp;Humidity;BMP_temperature;BMP_pressure;BME280_temperature;BME280_humidity;BME280_pressure;Samples;Min_cycle;Max_cycle;Signal;HPM_P1;HPM_P2
2023/12/19 00:01:15;;;;;;;;;;;3.90;99.90;;;;;;5030263;28;19921;-77
2023/12/19 00:03:43;;;;;;;;;;;4.20;99.90;;;;;;5023456;28;19944;-75
2023/12/19 00:06:11;;;;;;;;;;;4.50;99.90;;;;;;5030340;28;19947;-80
2023/12/19 00:08:39;;;;;;;;;;;4.70;99.90;;;;;;5017732;28;19921;-73
2023/12/19 00:11:06;;;;;;;;;;;4.80;99.90;;;;;;5027560;28;19995;-74
2023/12/19 00:13:34;;;;;;;;;;;4.90;99.90;;;;;;5010620;28;19926;-73
2023/12/19 00:16:03;;;;;;;;;;;5.00;99.90;;;;;;5010558;28;19925;-75
2023/12/19 00:18:31;;;;;;;;;;;5.20;99.90;;;;;;5022983;28;19925;-73
2023/12/19 00:20:59;;;;;;;;;;;5.30;99.90;;;;;;5021378;28;19944;-74
2023/12/19 00:23:31;;;;;;;;;;;5.20;99.90;;;;;;5014528;28;20400;-76
2023/12/19 00:25:59;;;;;;;;;;;5.10;99.90;;;;;;5021082;28;19925;-75
2023/12/19 00:28:27;;;;;;;;;;;5.00;99.90;;;;;;5007347;28;20347;-75
2023/12/19 00:30:55;;;;;;;;;;;4.90;99.90;;;;;;5020781;28;19967;-76
2023/12/19 00:33:24;;;;;;;;;;;4.90;99.90;;;;;;5021805;28;19921;-74
2023/12/19 00:35:52;;;;;;;;;;;4.90;99.90;;;;;;5015327;28;19968;-75
2023/12/19 00:38:20;;;;;;;;;;;5.00;99.90;;;;;;5010556;28;19925;-74
2023/12/19 00:40:48;;;;;;;;;;;5.10;99.90;;;;;;5019387;28;20316;-74
2023/12/19 00:43:16;;;;;;;;;;;5.00;99.90;;;;;;5010246;28;19925;-75
2023/12/19 00:45:44;;;;;;;;;;;5.00;99.90;;;;;;5010450;28;19922;-74
2023/12/19 00:48:13;;;;;;;;;;;5.10;99.90;;;;;;5025403;28;19978;-74
2023/12/19 00:50:42;;;;;;;;;;;5.10;99.90;;;;;;5014010;28;19948;-75
2023/12/19 00:53:10;;;;;;;;;;;5.10;99.90;;;;;;5021508;28;19921;-76
2023/12/19 00:55:39;;;;;;;;;;;4.80;99.90;;;;;;5014663;28;19922;-76
2023/12/19 00:58:06;;;;;;;;;;;4.90;99.90;;;;;;5029028;28;19920;-75
2023/12/19 01:00:34;;;;;;;;;;;4.80;99.90;;;;;;5024235;28;19925;-75
2023/12/19 01:03:02;;;;;;;;;;;4.90;99.90;;;;;;5024418;28;19921;-78
2023/12/19 01:05:30;;;;;;;;;;;5.10;99.90;;;;;;5015018;28;19927;-75
2023/12/19 01:07:59;;;;;;;;;;;5.20;99.90;;;;;;5022765;28;19932;-75
2023/12/19 01:10:27;;;;;;;;;;;5.20;99.90;;;;;;5031324;28;20355;-76
2023/12/19 01:12:54;;;;;;;;;;;5.40;99.90;;;;;;5021784;28;19921;-77
2023/12/19 01:15:23;;;;;;;;;;;5.40;99.90;;;;;;5014169;28;20404;-75
2023/12/19 01:17:50;;;;;;;;;;;5.40;99.90;;;;;;5022291;28;19971;-74
2023/12/19 01:20:19;;;;;;;;;;;5.50;99.90;;;;;;5013642;28;19928;-74
2023/12/19 01:22:47;;;;;;;;;;;5.60;99.90;;;;;;5014037;28;19926;-76
2023/12/19 01:25:16;;;;;;;;;;;5.70;99.90;;;;;;5021560;28;19928;-79
2023/12/19 01:27:45;;;;;;;;;;;5.60;99.90;;;;;;5013768;28;19972;-76
2023/12/19 01:30:13;;;;;;;;;;;5.60;99.90;;;;;;5029088;28;19921;-77
2023/12/19 01:32:41;;;;;;;;;;;5.50;99.90;;;;;;5019236;28;19949;-76
2023/12/19 01:35:09;;;;;;;;;;;5.40;99.90;;;;;;5013936;28;19921;-81
2023/12/19 01:37:37;;;;;;;;;;;5.20;99.90;;;;;;5031315;28;19929;-75
2023/12/19 01:40:07;;;;;;;;;;;5.20;99.90;;;;;;5023855;28;19921;-77
2023/12/19 01:42:36;;;;;;;;;;;4.80;99.90;;;;;;5025898;28;19921;-76
2023/12/19 01:45:11;;;;;;;;;;;4.70;99.90;;;;;;5021745;28;19928;-80
2023/12/19 01:47:40;;;;;;;;;;;4.60;99.90;;;;;;5023285;28;19971;-77
2023/12/19 01:50:08;;;;;;;;;;;4.60;99.90;;;;;;5017248;28;20004;-76
2023/12/19 01:52:36;;;;;;;;;;;4.30;99.90;;;;;;5011804;28;19925;-75
2023/12/19 01:55:04;;;;;;;;;;;4.10;99.90;;;;;;5020827;28;20011;-75
2023/12/19 01:57:32;;;;;;;;;;;4.10;99.90;;;;;;5012579;28;19925;-75
2023/12/19 02:00:02;;;;;;;;;;;4.20;99.90;;;;;;5013460;28;20023;-75
2023/12/19 02:02:30;;;;;;;;;;;4.00;99.90;;;;;;5014728;28;19936;-75
2023/12/19 02:04:58;;;;;;;;;;;4.00;99.90;;;;;;5018847;28;19925;-74
2023/12/19 02:07:27;;;;;;;;;;;4.10;99.90;;;;;;5028885;28;19928;-73
2023/12/19 02:09:54;;;;;;;;;;;3.90;99.90;;;;;;5030796;28;19921;-75
2023/12/19 02:12:22;;;;;;;;;;;3.90;99.90;;;;;;5023254;28;19925;-77
2023/12/19 02:14:51;;;;;;;;;;;3.70;99.90;;;;;;5012529;28;19921;-74
2023/12/19 02:17:21;;;;;;;;;;;3.40;99.90;;;;;;5018192;28;19936;-75
2023/12/19 02:19:50;;;;;;;;;;;3.60;99.90;;;;;;5018392;28;20008;-75
2023/12/19 02:22:18;;;;;;;;;;;3.60;99.90;;;;;;5030173;28;20291;-74
2023/12/19 02:24:47;;;;;;;;;;;3.50;99.90;;;;;;5022189;28;19974;-74
2023/12/19 02:27:15;;;;;;;;;;;3.60;99.90;;;;;;5026002;28;19949;-74
2023/12/19 02:29:43;;;;;;;;;;;3.60;99.90;;;;;;5012954;28;19921;-75
2023/12/19 02:32:11;;;;;;;;;;;3.50;99.90;;;;;;5020682;28;20032;-78
2023/12/19 02:34:39;;;;;;;;;;;3.40;99.90;;;;;;5020635;28;20026;-79
2023/12/19 02:37:07;;;;;;;;;;;3.60;99.90;;;;;;5012381;28;19928;-75
2023/12/19 02:39:34;;;;;;;;;;;3.80;99.90;;;;;;5012362;28;19929;-76
2023/12/19 02:42:04;;;;;;;;;;;3.90;99.90;;;;;;5015751;28;20020;-72
2023/12/19 02:44:32;;;;;;;;;;;4.00;99.90;;;;;;5019991;28;19941;-74
2023/12/19 02:47:00;;;;;;;;;;;4.10;99.90;;;;;;5011905;28;19921;-76
2023/12/19 02:49:27;;;;;;;;;;;4.00;99.90;;;;;;5025632;28;19987;-80
2023/12/19 02:51:55;;;;;;;;;;;4.10;99.90;;;;;;5018666;28;19927;-76
2023/12/19 02:54:23;;;;;;;;;;;4.00;99.90;;;;;;5023096;28;20328;-76
2023/12/19 02:56:51;;;;;;;;;;;4.10;99.90;;;;;;5017855;28;19921;-75
2023/12/19 02:59:20;;;;;;;;;;;4.00;99.90;;;;;;5014462;28;19932;-74
2023/12/19 03:01:48;;;;;;;;;;;4.10;99.90;;;;;;5017371;28;19937;-82
2023/12/19 03:04:16;;;;;;;;;;;4.10;99.90;;;;;;5012074;28;19928;-73
2023/12/19 03:06:44;;;;;;;;;;;4.10;99.90;;;;;;5016601;28;19933;-77
2023/12/19 03:09:12;;;;;;;;;;;3.70;99.90;;;;;;5016647;28;20060;-76
2023/12/19 03:11:40;;;;;;;;;;;3.60;99.90;;;;;;5028547;28;20400;-75
2023/12/19 03:14:07;;;;;;;;;;;3.30;99.90;;;;;;5019784;28;19921;-74
2023/12/19 03:16:37;;;;;;;;;;;3.20;99.90;;;;;;5022353;28;19921;-73
2023/12/19 03:19:04;;;;;;;;;;;2.90;99.90;;;;;;5013351;28;19930;-73
2023/12/19 03:21:32;;;;;;;;;;;2.70;99.90;;;;;;5018723;28;19921;-73
2023/12/19 03:24:00;;;;;;;;;;;2.80;99.90;;;;;;5028205;28;19920;-72
2023/12/19 03:26:28;;;;;;;;;;;2.70;99.90;;;;;;5018246;28;19921;-75
2023/12/19 03:28:55;;;;;;;;;;;2.70;99.90;;;;;;5011030;28;19983;-77
2023/12/19 03:31:23;;;;;;;;;;;2.60;99.90;;;;;;5012300;28;19921;-72
2023/12/19 03:33:52;;;;;;;;;;;2.60;99.90;;;;;;5018476;28;19922;-74
2023/12/19 03:36:20;;;;;;;;;;;2.50;99.90;;;;;;5015896;28;20352;-76
2023/12/19 03:38:49;;;;;;;;;;;2.40;99.90;;;;;;5011550;28;19929;-78
2023/12/19 03:41:17;;;;;;;;;;;2.30;99.90;;;;;;5024374;28;19925;-75
2023/12/19 03:43:45;;;;;;;;;;;2.10;99.90;;;;;;5020022;28;20323;-75
2023/12/19 03:46:14;;;;;;;;;;;2.10;99.90;;;;;;5011773;28;20426;-77
2023/12/19 03:48:44;;;;;;;;;;;2.20;99.90;;;;;;5022403;28;19928;-77
2023/12/19 03:51:14;;;;;;;;;;;2.20;99.90;;;;;;5016665;28;20027;-74
2023/12/19 03:53:42;;;;;;;;;;;2.20;99.90;;;;;;5022785;28;19925;-75
2023/12/19 03:56:10;;;;;;;;;;;2.10;99.90;;;;;;5016478;28;19925;-74
2023/12/19 03:58:38;;;;;;;;;;;2.00;99.90;;;;;;5023684;28;19960;-74
2023/12/19 04:01:06;;;;;;;;;;;2.10;99.90;;;;;;5011369;28;19968;-75
2023/12/19 04:03:34;;;;;;;;;;;2.00;99.90;;;;;;5015922;28;20397;-75
2023/12/19 04:06:02;;;;;;;;;;;2.10;99.90;;;;;;5017333;28;19968;-75
2023/12/19 04:08:31;;;;;;;;;;;2.10;99.90;;;;;;5017190;28;19929;-75
2023/12/19 04:10:59;;;;;;;;;;;2.30;99.90;;;;;;5019406;28;20416;-73
2023/12/19 04:13:27;;;;;;;;;;;2.40;99.90;;;;;;5011096;28;19967;-75
2023/12/19 04:15:55;;;;;;;;;;;2.40;99.90;;;;;;5011336;28;20415;-74
2023/12/19 04:18:22;;;;;;;;;;;2.40;99.90;;;;;;5010702;28;20032;-75
2023/12/19 04:20:50;;;;;;;;;;;2.40;99.90;;;;;;5019481;28;19983;-74
2023/12/19 04:23:18;;;;;;;;;;;2.40;99.90;;;;;;5015215;28;19921;-73
2023/12/19 04:25:47;;;;;;;;;;;2.20;99.90;;;;;;5014530;28;19926;-73
2023/12/19 04:28:15;;;;;;;;;;;2.20;99.90;;;;;;5018255;28;19921;-75
2023/12/19 04:30:43;;;;;;;;;;;2.30;99.90;;;;;;5022570;28;19937;-75
2023/12/19 04:33:11;;;;;;;;;;;2.40;99.90;;;;;;5020510;28;20432;-76
2023/12/19 04:35:39;;;;;;;;;;;2.40;99.90;;;;;;5025223;28;19936;-75
2023/12/19 04:38:07;;;;;;;;;;;2.30;99.90;;;;;;5020320;28;20388;-75
2023/12/19 04:40:34;;;;;;;;;;;2.20;99.90;;;;;;5024329;28;19929;-76
2023/12/19 04:43:04;;;;;;;;;;;2.30;99.90;;;;;;5023708;28;19925;-76
2023/12/19 04:45:32;;;;;;;;;;;2.30;99.90;;;;;;5010429;28;19925;-77
2023/12/19 04:48:00;;;;;;;;;;;2.40;99.90;;;;;;5014209;28;19925;-77
2023/12/19 04:50:28;;;;;;;;;;;2.60;99.90;;;;;;5010865;28;19925;-79
2023/12/19 04:52:56;;;;;;;;;;;2.60;99.90;;;;;;5025258;28;19921;-77
2023/12/19 04:55:24;;;;;;;;;;;2.40;99.90;;;;;;5014170;28;20015;-75
2023/12/19 04:57:52;;;;;;;;;;;2.30;99.90;;;;;;5017616;28;19921;-78
2023/12/19 05:00:21;;;;;;;;;;;2.30;99.90;;;;;;5018119;28;19980;-74
2023/12/19 05:02:49;;;;;;;;;;;2.20;99.90;;;;;;5019281;28;19921;-76
2023/12/19 05:05:17;;;;;;;;;;;2.30;99.90;;;;;;5017808;28;19922;-75
2023/12/19 05:07:45;;;;;;;;;;;2.40;99.90;;;;;;5016649;28;19921;-75
2023/12/19 05:10:13;;;;;;;;;;;2.50;99.90;;;;;;5015753;28;19921;-77
2023/12/19 05:12:41;;;;;;;;;;;2.40;99.90;;;;;;5020745;28;19924;-76
2023/12/19 05:15:09;;;;;;;;;;;2.30;99.90;;;;;;5012613;28;19927;-76
2023/12/19 05:17:38;;;;;;;;;;;2.50;99.90;;;;;;5011294;28;19925;-76
2023/12/19 05:20:07;;;;;;;;;;;2.40;99.90;;;;;;5025966;28;19957;-74
2023/12/19 05:22:35;;;;;;;;;;;2.40;99.90;;;;;;5025063;28;20016;-74
2023/12/19 05:25:03;;;;;;;;;;;2.20;99.90;;;;;;5016356;28;20430;-74
2023/12/19 05:27:31;;;;;;;;;;;2.30;99.90;;;;;;5021275;28;19926;-71
2023/12/19 05:29:59;;;;;;;;;;;2.30;99.90;;;;;;5014200;28;20360;-72
2023/12/19 05:32:26;;;;;;;;;;;2.40;99.90;;;;;;5014074;28;20312;-71
2023/12/19 05:34:55;;;;;;;;;;;2.50;99.90;;;;;;5024899;28;20109;-74
2023/12/19 05:37:24;;;;;;;;;;;2.40;99.90;;;;;;5023946;28;19928;-72
2023/12/19 05:39:52;;;;;;;;;;;2.40;99.90;;;;;;5017002;28;20396;-73
2023/12/19 05:42:20;;;;;;;;;;;2.50;99.90;;;;;;5023778;28;20385;-72
2023/12/19 05:44:48;;;;;;;;;;;2.50;99.90;;;;;;5014358;28;19921;-71
2023/12/19 05:47:16;;;;;;;;;;;2.50;99.90;;;;;;5024758;28;19921;-72
2023/12/19 05:49:43;;;;;;;;;;;2.50;99.90;;;;;;5020539;28;19924;-72
2023/12/19 05:52:12;;;;;;;;;;;2.50;99.90;;;;;;5023050;28;19926;-72
2023/12/19 05:54:40;;;;;;;;;;;2.40;99.90;;;;;;5015244;28;19976;-72
2023/12/19 05:57:08;;;;;;;;;;;2.50;99.90;;;;;;5017213;28;20001;-72
2023/12/19 05:59:36;;;;;;;;;;;2.40;99.90;;;;;;5022534;28;19921;-72
2023/12/19 06:02:04;;;;;;;;;;;2.50;99.90;;;;;;5025771;28;19921;-72
2023/12/19 06:04:34;;;;;;;;;;;2.50;99.90;;;;;;5019779;28;19933;-76
2023/12/19 06:07:03;;;;;;;;;;;2.50;99.90;;;;;;5023093;28;19929;-72
2023/12/19 06:09:32;;;;;;;;;;;2.40;99.90;;;;;;5021475;28;20411;-72
2023/12/19 06:12:00;;;;;;;;;;;2.30;99.90;;;;;;5017772;28;20388;-72
2023/12/19 06:14:28;;;;;;;;;;;2.20;99.90;;;;;;5015057;28;20380;-71
2023/12/19 06:16:56;;;;;;;;;;;2.10;99.90;;;;;;5004137;28;19929;-73
2023/12/19 06:19:24;;;;;;;;;;;2.00;99.90;;;;;;5003200;28;19932;-73
2023/12/19 06:21:52;;;;;;;;;;;1.90;99.90;;;;;;5002673;28;19929;-73
2023/12/19 06:24:20;;;;;;;;;;;1.80;99.90;;;;;;5003424;28;19929;-71
2023/12/19 06:26:49;;;;;;;;;;;1.80;99.90;;;;;;5001503;28;19940;-76
2023/12/19 06:29:17;;;;;;;;;;;1.70;99.90;;;;;;5002693;28;19929;-72
2023/12/19 06:31:45;;;;;;;;;;;1.70;99.90;;;;;;5003160;28;19929;-74
2023/12/19 06:34:13;;;;;;;;;;;1.60;99.90;;;;;;5002290;28;20392;-74
2023/12/19 06:36:41;;;;;;;;;;;1.70;99.90;;;;;;4999285;28;20740;-75
2023/12/19 06:39:09;;;;;;;;;;;1.70;99.90;;;;;;5001279;28;20474;-72
2023/12/19 06:41:37;;;;;;;;;;;1.80;99.90;;;;;;5002341;28;20400;-70
2023/12/19 06:44:06;;;;;;;;;;;1.80;99.90;;;;;;5001943;28;19925;-72
2023/12/19 06:46:33;;;;;;;;;;;1.70;99.90;;;;;;5000237;28;19929;-74
2023/12/19 06:49:01;;;;;;;;;;;1.70;99.90;;;;;;5001793;28;19929;-71
2023/12/19 06:51:29;;;;;;;;;;;1.70;99.90;;;;;;5003377;28;19935;-72
2023/12/19 06:53:57;;;;;;;;;;;1.70;99.90;;;;;;5001653;28;19925;-73
2023/12/19 06:56:26;;;;;;;;;;;1.70;99.90;;;;;;4999560;28;19937;-72
2023/12/19 06:58:55;;;;;;;;;;;1.70;99.90;;;;;;5001229;28;19929;-72
2023/12/19 07:01:25;;;;;;;;;;;1.60;99.90;;;;;;5002692;28;19973;-70
2023/12/19 07:03:53;;;;;;;;;;;1.60;99.90;;;;;;5002593;28;19936;-70
2023/12/19 07:06:21;;;;;;;;;;;1.50;99.90;;;;;;5002271;28;19921;-71
2023/12/19 07:08:50;;;;;;;;;;;1.50;99.90;;;;;;5011674;28;19922;-70
2023/12/19 07:11:20;;;;;;;;;;;1.50;99.90;;;;;;5017661;28;20027;-70
2023/12/19 07:13:48;;;;;;;;;;;1.50;99.90;;;;;;5024759;28;19921;-69
2023/12/19 07:16:17;;;;;;;;;;;1.50;99.90;;;;;;5018560;28;19988;-70
2023/12/19 07:18:47;;;;;;;;;;;1.50;99.90;;;;;;5023285;28;19943;-71
2023/12/19 07:21:19;;;;;;;;;;;1.50;99.90;;;;;;5028158;28;19940;-75
2023/12/19 07:23:46;;;;;;;;;;;1.50;99.90;;;;;;5021116;28;19921;-69
2023/12/19 07:26:21;;;;;;;;;;;1.60;99.90;;;;;;5023701;28;19991;-70
2023/12/19 07:28:49;;;;;;;;;;;1.60;99.90;;;;;;5012232;28;19932;-70
2023/12/19 07:31:21;;;;;;;;;;;1.60;99.90;;;;;;5011659;28;19921;-69
2023/12/19 07:33:51;;;;;;;;;;;1.60;99.90;;;;;;5011988;28;19925;-69
2023/12/19 07:36:19;;;;;;;;;;;1.60;99.90;;;;;;5011804;28;20434;-71
2023/12/19 07:38:47;;;;;;;;;;;1.60;99.90;;;;;;5011275;28;19921;-71
2023/12/19 07:41:15;;;;;;;;;;;1.60;99.90;;;;;;5011778;28;19932;-71
2023/12/19 07:43:43;;;;;;;;;;;1.60;99.90;;;;;;5011631;28;19962;-71
2023/12/19 07:46:11;;;;;;;;;;;1.70;99.90;;;;;;5011732;28;19921;-72
2023/12/19 07:48:39;;;;;;;;;;;1.70;99.90;;;;;;5011264;28;19960;-71
2023/12/19 07:51:08;;;;;;;;;;;1.70;99.90;;;;;;5011616;28;19972;-72
2023/12/19 07:53:36;;;;;;;;;;;1.70;99.90;;;;;;5011486;28;19925;-71
2023/12/19 07:56:04;;;;;;;;;;;1.70;99.90;;;;;;5011588;28;19937;-71
2023/12/19 07:58:32;;;;;;;;;;;1.80;99.90;;;;;;5010944;28;20388;-71
2023/12/19 08:01:00;;;;;;;;;;;1.80;99.90;;;;;;5011297;28;19921;-72
2023/12/19 08:03:28;;;;;;;;;;;1.80;99.90;;;;;;5011443;28;19922;-70
2023/12/19 08:05:56;;;;;;;;;;;1.80;99.90;;;;;;5011811;28;19952;-71
2023/12/19 08:08:25;;;;;;;;;;;1.90;99.90;;;;;;5011075;28;19944;-71
2023/12/19 08:10:53;;;;;;;;;;;1.90;99.90;;;;;;5011452;28;20000;-71
2023/12/19 08:13:21;;;;;;;;;;;1.90;99.90;;;;;;5011288;28;19928;-72
2023/12/19 08:15:49;;;;;;;;;;;1.90;99.90;;;;;;5011018;28;19921;-71
2023/12/19 08:18:17;;;;;;;;;;;1.90;99.90;;;;;;5010788;28;20419;-71
2023/12/19 08:20:45;;;;;;;;;;;2.00;99.90;;;;;;5011298;28;19926;-71
2023/12/19 08:23:13;;;;;;;;;;;2.00;99.90;;;;;;5011392;28;20363;-71
2023/12/19 08:25:43;;;;;;;;;;;2.00;99.90;;;;;;5011401;28;19921;-71
2023/12/19 08:28:11;;;;;;;;;;;2.00;99.90;;;;;;5010946;28;19925;-71
2023/12/19 08:30:40;;;;;;;;;;;2.00;99.90;;;;;;5011271;28;19965;-71
2023/12/19 08:33:08;;;;;;;;;;;2.10;99.90;;;;;;5010764;28;19921;-71
2023/12/19 08:35:36;;;;;;;;;;;2.10;99.90;;;;;;5010856;28;19964;-71
2023/12/19 08:38:04;;;;;;;;;;;2.10;99.90;;;;;;5010727;28;20295;-71
2023/12/19 08:40:32;;;;;;;;;;;2.20;99.90;;;;;;5011548;28;20383;-71
2023/12/19 08:43:01;;;;;;;;;;;2.30;99.90;;;;;;5010659;28;20478;-71
2023/12/19 08:45:28;;;;;;;;;;;2.30;99.90;;;;;;5010955;28;19976;-71
2023/12/19 08:47:56;;;;;;;;;;;2.30;99.90;;;;;;5010753;28;19922;-71
2023/12/19 08:50:24;;;;;;;;;;;2.30;99.90;;;;;;5011448;28;19925;-71
2023/12/19 08:52:53;;;;;;;;;;;2.20;99.90;;;;;;5011491;28;20384;-72
2023/12/19 08:55:22;;;;;;;;;;;2.30;99.90;;;;;;5018054;28;19969;-71
2023/12/19 08:57:50;;;;;;;;;;;2.30;99.90;;;;;;5010376;28;19925;-74
2023/12/19 09:00:21;;;;;;;;;;;2.40;99.90;;;;;;5010959;28;19921;-69
2023/12/19 09:02:49;;;;;;;;;;;2.40;99.90;;;;;;5011197;28;20024;-71
2023/12/19 09:05:19;;;;;;;;;;;2.40;99.90;;;;;;5018331;28;20304;-71
2023/12/19 09:07:47;;;;;;;;;;;2.40;99.90;;;;;;5010366;28;19928;-71
2023/12/19 09:10:15;;;;;;;;;;;2.40;99.90;;;;;;5003635;28;20312;-72
2023/12/19 09:12:44;;;;;;;;;;;2.40;99.90;;;;;;5014273;28;19925;-71
2023/12/19 09:15:13;;;;;;;;;;;2.40;99.90;;;;;;5014403;28;19928;-70
2023/12/19 09:17:42;;;;;;;;;;;2.40;99.90;;;;;;5013992;28;19975;-72
2023/12/19 09:20:10;;;;;;;;;;;2.50;99.90;;;;;;5014590;28;19925;-71
2023/12/19 09:22:38;;;;;;;;;;;2.60;99.90;;;;;;5014406;28;20466;-71
2023/12/19 09:25:13;;;;;;;;;;;2.60;99.90;;;;;;5014262;28;20422;-69
2023/12/19 09:27:42;;;;;;;;;;;2.50;99.90;;;;;;5014081;28;19921;-70
2023/12/19 09:30:11;;;;;;;;;;;2.60;99.90;;;;;;5014285;28;20022;-70
2023/12/19 09:32:40;;;;;;;;;;;2.60;99.90;;;;;;5014257;28;19921;-70
2023/12/19 09:35:11;;;;;;;;;;;2.60;99.90;;;;;;5013924;28;20007;-70
2023/12/19 09:37:39;;;;;;;;;;;2.50;99.90;;;;;;5013602;28;20012;-69
2023/12/19 09:40:13;;;;;;;;;;;2.50;99.90;;;;;;5014420;28;20300;-70
2023/12/19 09:42:41;;;;;;;;;;;2.50;99.90;;;;;;5014048;28;20289;-73
2023/12/19 09:45:09;;;;;;;;;;;2.50;99.90;;;;;;5013813;28;19925;-69
2023/12/19 09:47:40;;;;;;;;;;;2.50;99.90;;;;;;5013363;28;19925;-72
2023/12/19 09:50:13;;;;;;;;;;;2.50;99.90;;;;;;5013977;28;19988;-72
2023/12/19 09:52:42;;;;;;;;;;;2.40;99.90;;;;;;5014114;28;19921;-69
2023/12/19 09:55:10;;;;;;;;;;;2.50;99.90;;;;;;5013550;28;20029;-69
2023/12/19 09:57:40;;;;;;;;;;;2.50;99.90;;;;;;5013174;28;19921;-69
2023/12/19 10:00:10;;;;;;;;;;;2.50;99.90;;;;;;5013848;28;19948;-72
2023/12/19 10:02:38;;;;;;;;;;;2.50;99.90;;;;;;5013550;28;19921;-70
2023/12/19 10:05:07;;;;;;;;;;;2.40;99.90;;;;;;5013897;28;19947;-70
2023/12/19 10:07:36;;;;;;;;;;;2.40;99.90;;;;;;5013258;28;19925;-70
2023/12/19 10:10:07;;;;;;;;;;;2.50;99.90;;;;;;5013566;28;19933;-70
2023/12/19 10:12:47;;;;;;;;;;;2.50;99.90;;;;;;5013922;28;20407;-70
2023/12/19 10:15:25;;;;;;;;;;;2.50;99.90;;;;;;5005799;28;19944;-70
2023/12/19 10:18:04;;;;;;;;;;;2.50;99.90;;;;;;5012870;28;19921;-70
2023/12/19 10:20:32;;;;;;;;;;;2.50;99.90;;;;;;5007271;28;19922;-70
2023/12/19 10:23:04;;;;;;;;;;;2.60;99.90;;;;;;5012404;28;19929;-70
2023/12/19 10:25:32;;;;;;;;;;;2.60;99.90;;;;;;5013483;28;19921;-70
2023/12/19 10:28:12;;;;;;;;;;;2.60;99.90;;;;;;5013071;28;19921;-70
2023/12/19 10:30:40;;;;;;;;;;;2.70;99.90;;;;;;5013230;28;19928;-70
2023/12/19 10:33:08;;;;;;;;;;;2.70;99.90;;;;;;5012829;28;19928;-69
2023/12/19 10:35:37;;;;;;;;;;;2.70;99.90;;;;;;5012901;28;19929;-70
2023/12/19 10:38:06;;;;;;;;;;;2.80;99.90;;;;;;5012292;28;19921;-70
2023/12/19 10:40:37;;;;;;;;;;;2.90;99.90;;;;;;5013031;28;19925;-70
2023/12/19 10:43:05;;;;;;;;;;;2.90;99.90;;;;;;5012695;28;20411;-69
2023/12/19 10:45:34;;;;;;;;;;;2.90;99.90;;;;;;5012632;28;19925;-71
2023/12/19 10:48:01;;;;;;;;;;;3.00;99.90;;;;;;5012309;28;19921;-70
2023/12/19 10:50:29;;;;;;;;;;;3.00;99.90;;;;;;5013157;28;19921;-70
2023/12/19 10:53:00;;;;;;;;;;;3.00;99.90;;;;;;5012605;28;20389;-70
2023/12/19 10:55:34;;;;;;;;;;;3.10;99.90;;;;;;5013021;28;19928;-70
2023/12/19 10:58:03;;;;;;;;;;;3.20;99.90;;;;;;5011897;28;19921;-70
2023/12/19 11:00:32;;;;;;;;;;;3.10;99.90;;;;;;5012488;28;19921;-72
2023/12/19 11:03:06;;;;;;;;;;;3.20;99.90;;;;;;5012548;28;19921;-69
2023/12/19 11:05:36;;;;;;;;;;;3.30;99.90;;;;;;5012698;28;19929;-70
2023/12/19 11:08:05;;;;;;;;;;;3.30;99.90;;;;;;5011779;28;19921;-69
2023/12/19 11:10:38;;;;;;;;;;;3.30;99.90;;;;;;5012517;28;19975;-71
2023/12/19 11:13:06;;;;;;;;;;;3.40;99.90;;;;;;5012457;28;19921;-70
2023/12/19 11:15:35;;;;;;;;;;;3.40;99.90;;;;;;5012189;28;19921;-70
2023/12/19 11:18:05;;;;;;;;;;;3.40;99.90;;;;;;5011656;28;20048;-70
2023/12/19 11:20:35;;;;;;;;;;;3.40;99.90;;;;;;5012219;28;19921;-72
2023/12/19 11:23:11;;;;;;;;;;;3.40;99.90;;;;;;5012235;28;19928;-72
2023/12/19 11:25:42;;;;;;;;;;;3.40;99.90;;;;;;5012741;28;20303;-71
2023/12/19 11:28:10;;;;;;;;;;;3.40;99.90;;;;;;5011547;28;20044;-71
2023/12/19 11:30:40;;;;;;;;;;;3.50;99.90;;;;;;5011766;28;19976;-72
2023/12/19 11:33:11;;;;;;;;;;;3.50;99.90;;;;;;5011989;28;20003;-73
2023/12/19 11:35:39;;;;;;;;;;;3.50;99.90;;;;;;5011959;28;19973;-72
2023/12/19 11:38:24;;;;;;;;;;;3.60;99.90;;;;;;5011305;28;19925;-72
2023/12/19 11:40:55;;;;;;;;;;;3.60;99.90;;;;;;5011970;28;19921;-72
2023/12/19 11:43:41;;;;;;;;;;;3.70;99.90;;;;;;5011800;28;19921;-73
2023/12/19 11:46:16;;;;;;;;;;;3.60;99.90;;;;;;5011400;28;19925;-71
2023/12/19 11:48:49;;;;;;;;;;;3.60;99.90;;;;;;5016782;28;19921;-72
2023/12/19 11:51:54;;;;;;;;;;;3.60;99.90;;;;;;5013216;28;20405;-73
2023/12/19 11:54:22;;;;;;;;;;;3.70;99.90;;;;;;4951063;28;20018;-72
2023/12/19 11:57:01;;;;;;;;;;;3.70;99.90;;;;;;4951099;28;20330;-72
2023/12/19 11:59:46;;;;;;;;;;;3.70;99.90;;;;;;4984016;28;20410;-69
2023/12/19 12:02:28;;;;;;;;;;;3.70;99.90;;;;;;5011656;28;19927;-69
2023/12/19 12:05:04;;;;;;;;;;;3.80;99.90;;;;;;5011659;28;19928;-71
2023/12/19 12:07:32;;;;;;;;;;;3.80;99.90;;;;;;5011132;28;19921;-73
2023/12/19 12:10:01;;;;;;;;;;;3.80;99.90;;;;;;5011324;28;20180;-72
2023/12/19 12:12:32;;;;;;;;;;;3.90;99.90;;;;;;5011374;28;19968;-69
2023/12/19 12:15:06;;;;;;;;;;;3.80;99.90;;;;;;5011091;28;19964;-69
2023/12/19 12:17:35;;;;;;;;;;;3.90;99.90;;;;;;5010954;28;19952;-69
2023/12/19 12:20:03;;;;;;;;;;;3.90;99.90;;;;;;5011264;28;20417;-71
2023/12/19 12:22:31;;;;;;;;;;;3.90;99.90;;;;;;5003535;28;20033;-72
2023/12/19 12:24:59;;;;;;;;;;;3.90;99.90;;;;;;5011403;28;19926;-72
2023/12/19 12:27:27;;;;;;;;;;;3.80;99.90;;;;;;5010780;28;19921;-73
2023/12/19 12:29:56;;;;;;;;;;;3.90;99.90;;;;;;5011032;28;19976;-71
2023/12/19 12:32:25;;;;;;;;;;;3.90;99.90;;;;;;5011021;28;19925;-71
2023/12/19 12:34:53;;;;;;;;;;;3.90;99.90;;;;;;5011465;28;20233;-69
2023/12/19 12:37:21;;;;;;;;;;;3.90;99.90;;;;;;5010777;28;19925;-72
2023/12/19 12:40:01;;;;;;;;;;;4.00;99.90;;;;;;5011198;28;20380;-72
2023/12/19 12:42:29;;;;;;;;;;;3.90;99.90;;;;;;5011448;28;19944;-71
2023/12/19 12:45:02;;;;;;;;;;;3.90;99.90;;;;;;5011464;28;20046;-71
2023/12/19 12:47:30;;;;;;;;;;;4.00;99.90;;;;;;5014282;28;20375;-71
2023/12/19 12:50:04;;;;;;;;;;;4.00;99.90;;;;;;5014870;28;19921;-69
2023/12/19 12:52:32;;;;;;;;;;;4.00;99.90;;;;;;5014839;28;19922;-71
2023/12/19 12:55:00;;;;;;;;;;;4.00;99.90;;;;;;5015086;28;20431;-72
2023/12/19 12:57:28;;;;;;;;;;;4.00;99.90;;;;;;5014469;28;19957;-71
2023/12/19 12:59:57;;;;;;;;;;;3.90;99.90;;;;;;5014481;28;19921;-71
2023/12/19 13:02:26;;;;;;;;;;;4.00;99.90;;;;;;5014546;28;19925;-71
2023/12/19 13:04:54;;;;;;;;;;;3.90;99.90;;;;;;5014841;28;19969;-72
2023/12/19 13:07:22;;;;;;;;;;;4.00;99.90;;;;;;5014326;28;20423;-71
2023/12/19 13:09:50;;;;;;;;;;;4.00;99.90;;;;;;5014661;28;19925;-71
2023/12/19 13:12:17;;;;;;;;;;;4.00;99.90;;;;;;5022678;28;20400;-71
2023/12/19 13:14:45;;;;;;;;;;;4.00;99.90;;;;;;5015042;28;19933;-69
2023/12/19 13:17:13;;;;;;;;;;;4.00;99.90;;;;;;5014014;28;19925;-69
2023/12/19 13:19:42;;;;;;;;;;;4.00;99.90;;;;;;5014653;28;19932;-71
2023/12/19 13:22:10;;;;;;;;;;;4.00;99.90;;;;;;5014640;28;19995;-72
2023/12/19 13:24:38;;;;;;;;;;;4.00;99.90;;;;;;5014261;28;20226;-71
2023/12/19 13:27:09;;;;;;;;;;;4.00;99.90;;;;;;5014090;28;20393;-71
2023/12/19 13:29:37;;;;;;;;;;;4.00;99.90;;;;;;5014402;28;19929;-69
2023/12/19 13:32:07;;;;;;;;;;;4.00;99.90;;;;;;5014391;28;19926;-72
2023/12/19 13:34:36;;;;;;;;;;;4.00;99.90;;;;;;5013715;28;20296;-72
2023/12/19 13:37:05;;;;;;;;;;;4.10;99.90;;;;;;5013663;28;20448;-72
2023/12/19 13:39:33;;;;;;;;;;;4.10;99.90;;;;;;5013939;28;19930;-70
2023/12/19 13:42:03;;;;;;;;;;;4.10;99.90;;;;;;5014169;28;19987;-71
2023/12/19 13:44:31;;;;;;;;;;;4.00;99.90;;;;;;5013829;28;19932;-73
2023/12/19 13:46:59;;;;;;;;;;;4.00;99.90;;;;;;5013245;28;19968;-72
2023/12/19 13:49:27;;;;;;;;;;;4.00;99.90;;;;;;5014039;28;19983;-71
2023/12/19 13:51:55;;;;;;;;;;;4.00;99.90;;;;;;5014043;28;19928;-71
2023/12/19 13:54:26;;;;;;;;;;;4.00;99.90;;;;;;5013593;28;20016;-74
2023/12/19 13:56:54;;;;;;;;;;;4.00;99.90;;;;;;5020389;28;19944;-74
2023/12/19 13:59:23;;;;;;;;;;;4.00;99.90;;;;;;5013732;28;19925;-71
2023/12/19 14:01:51;;;;;;;;;;;4.10;99.90;;;;;;5014112;28;20430;-72
2023/12/19 14:04:20;;;;;;;;;;;4.00;99.90;;;;;;5013907;28;20285;-72
2023/12/19 14:06:48;;;;;;;;;;;4.00;99.90;;;;;;5013502;28;20407;-71
2023/12/19 14:09:19;;;;;;;;;;;4.00;99.90;;;;;;5013191;28;20578;-71
2023/12/19 14:11:51;;;;;;;;;;;4.00;99.90;;;;;;5013788;28;19921;-71
2023/12/19 14:14:19;;;;;;;;;;;4.00;99.90;;;;;;5013272;28;20332;-72
2023/12/19 14:16:50;;;;;;;;;;;4.10;99.90;;;;;;5013392;28;20304;-73
2023/12/19 14:19:18;;;;;;;;;;;4.10;99.90;;;;;;5013287;28;19926;-70
2023/12/19 14:21:46;;;;;;;;;;;4.00;99.90;;;;;;5013600;28;19951;-70
2023/12/19 14:24:14;;;;;;;;;;;4.00;99.90;;;;;;5013316;28;19928;-70
2023/12/19 14:26:44;;;;;;;;;;;4.10;99.90;;;;;;5005343;28;19929;-70
2023/12/19 14:29:13;;;;;;;;;;;4.10;99.90;;;;;;5012878;28;19925;-70
2023/12/19 14:31:44;;;;;;;;;;;4.10;99.90;;;;;;5012960;28;19932;-70
2023/12/19 14:34:13;;;;;;;;;;;4.10;99.90;;;;;;5013359;28;19928;-70
2023/12/19 14:36:43;;;;;;;;;;;4.10;99.90;;;;;;5012683;28;19929;-70
2023/12/19 14:39:12;;;;;;;;;;;4.10;99.90;;;;;;5012629;28;19978;-69
2023/12/19 14:41:40;;;;;;;;;;;4.10;99.90;;;;;;5013029;28;19922;-70